sensor_id;sensor_type;location;lat;lon;timestamp;pressure;altitude;pressure_sealevel;temperature;humidity
72118;BME280;59992;47.490;8.736;2022-10-16T00:02:14;96608.43;;;12.67;94.33
72118;BME280;59992;47.490;8.736;2022-10-16T00:05:05;96606.83;;;12.65;94.17
72118;BME280;59992;47.490;8.736;2022-10-16T00:07:56;96607.27;;;12.64;94.94
72118;BME280;59992;47.490;8.736;2022-10-16T00:10:46;96604.00;;;12.64;94.49
72118;BME280;59992;47.490;8.736;2022-10-16T00:13:38;96601.97;;;12.65;94.23
72118;BME280;59992;47.490;8.736;2022-10-16T00:16:29;96600.23;;;12.69;93.43
72118;BME280;59992;47.490;8.736;2022-10-16T00:19:19;96602.16;;;12.74;93.30
72118;BME280;59992;47.490;8.736;2022-10-16T00:22:10;96598.95;;;12.69;93.86
72118;BME280;59992;47.490;8.736;2022-10-16T00:25:01;96597.79;;;12.67;93.93
72118;BME280;59992;47.490;8.736;2022-10-16T00:27:51;96594.90;;;12.67;93.65
72118;BME280;59992;47.490;8.736;2022-10-16T00:30:41;96593.11;;;12.71;93.70
72118;BME280;59992;47.490;8.736;2022-10-16T00:33:32;96594.04;;;12.74;94.22
72118;BME280;59992;47.490;8.736;2022-10-16T00:36:24;96595.77;;;12.73;93.98
72118;BME280;59992;47.490;8.736;2022-10-16T00:39:15;96602.41;;;12.75;94.16
72118;BME280;59992;47.490;8.736;2022-10-16T00:42:05;96605.90;;;12.77;94.31
72118;BME280;59992;47.490;8.736;2022-10-16T00:44:57;96607.74;;;12.80;94.59
72118;BME280;59992;47.490;8.736;2022-10-16T00:47:48;96610.71;;;12.83;94.53
72118;BME280;59992;47.490;8.736;2022-10-16T00:50:40;96616.74;;;12.86;94.63
72118;BME280;59992;47.490;8.736;2022-10-16T00:53:32;96620.95;;;12.91;94.70
72118;BME280;59992;47.490;8.736;2022-10-16T00:56:23;96617.70;;;12.94;94.32
72118;BME280;59992;47.490;8.736;2022-10-16T00:59:18;96618.33;;;12.98;94.33
72118;BME280;59992;47.490;8.736;2022-10-16T01:02:10;96617.86;;;13.00;94.39
72118;BME280;59992;47.490;8.736;2022-10-16T01:05:01;96620.91;;;13.01;94.36
72118;BME280;59992;47.490;8.736;2022-10-16T01:07:58;96622.46;;;13.04;93.97
72118;BME280;59992;47.490;8.736;2022-10-16T01:10:59;96621.50;;;13.07;93.33
72118;BME280;59992;47.490;8.736;2022-10-16T01:14:00;96620.67;;;13.08;93.60
72118;BME280;59992;47.490;8.736;2022-10-16T01:16:55;96614.59;;;13.10;93.17
72118;BME280;59992;47.490;8.736;2022-10-16T01:20:03;96615.58;;;13.10;92.82
72118;BME280;59992;47.490;8.736;2022-10-16T01:23:06;96614.89;;;13.08;93.23
72118;BME280;59992;47.490;8.736;2022-10-16T01:26:27;96615.80;;;13.07;92.47
72118;BME280;59992;47.490;8.736;2022-10-16T01:29:23;96623.09;;;13.05;92.82
72118;BME280;59992;47.490;8.736;2022-10-16T01:32:18;96614.14;;;13.00;92.45
72118;BME280;59992;47.490;8.736;2022-10-16T01:35:14;96621.27;;;12.94;93.22
72118;BME280;59992;47.490;8.736;2022-10-16T01:38:14;96616.64;;;12.97;93.15
72118;BME280;59992;47.490;8.736;2022-10-16T01:41:09;96626.21;;;12.97;93.41
72118;BME280;59992;47.490;8.736;2022-10-16T01:44:04;96626.77;;;12.98;93.19
72118;BME280;59992;47.490;8.736;2022-10-16T01:46:56;96622.65;;;12.99;94.03
72118;BME280;59992;47.490;8.736;2022-10-16T01:49:47;96629.96;;;13.03;93.78
72118;BME280;59992;47.490;8.736;2022-10-16T01:52:42;96640.73;;;13.06;94.01
72118;BME280;59992;47.490;8.736;2022-10-16T01:55:35;96639.66;;;13.06;94.14
72118;BME280;59992;47.490;8.736;2022-10-16T01:58:29;96636.33;;;13.05;93.97
72118;BME280;59992;47.490;8.736;2022-10-16T02:01:24;96634.33;;;13.04;94.10
72118;BME280;59992;47.490;8.736;2022-10-16T02:04:18;96622.08;;;13.03;94.01
72118;BME280;59992;47.490;8.736;2022-10-16T02:07:11;96627.20;;;13.06;93.91
72118;BME280;59992;47.490;8.736;2022-10-16T02:10:02;96623.48;;;13.07;93.85
72118;BME280;59992;47.490;8.736;2022-10-16T02:12:56;96628.57;;;13.06;94.22
72118;BME280;59992;47.490;8.736;2022-10-16T02:15:49;96631.46;;;13.06;94.26
72118;BME280;59992;47.490;8.736;2022-10-16T02:18:39;96631.16;;;13.08;94.10
72118;BME280;59992;47.490;8.736;2022-10-16T02:21:35;96636.13;;;13.11;93.78
72118;BME280;59992;47.490;8.736;2022-10-16T02:24:34;96642.80;;;13.08;93.03
72118;BME280;59992;47.490;8.736;2022-10-16T02:27:33;96639.02;;;13.03;93.12
72118;BME280;59992;47.490;8.736;2022-10-16T02:30:28;96646.81;;;13.01;93.50
72118;BME280;59992;47.490;8.736;2022-10-16T02:33:21;96648.82;;;13.02;93.26
72118;BME280;59992;47.490;8.736;2022-10-16T02:36:13;96644.14;;;13.04;92.86
72118;BME280;59992;47.490;8.736;2022-10-16T02:39:05;96640.79;;;13.04;92.55
72118;BME280;59992;47.490;8.736;2022-10-16T02:41:56;96636.58;;;13.01;92.30
72118;BME280;59992;47.490;8.736;2022-10-16T02:44:49;96632.38;;;12.96;91.68
72118;BME280;59992;47.490;8.736;2022-10-16T02:47:39;96630.20;;;12.89;91.73
72118;BME280;59992;47.490;8.736;2022-10-16T02:50:29;96629.34;;;12.83;91.78
72118;BME280;59992;47.490;8.736;2022-10-16T02:53:19;96623.35;;;12.71;91.60
72118;BME280;59992;47.490;8.736;2022-10-16T02:56:10;96616.77;;;12.65;92.63
72118;BME280;59992;47.490;8.736;2022-10-16T02:59:00;96613.17;;;12.59;92.30
72118;BME280;59992;47.490;8.736;2022-10-16T03:01:50;96628.42;;;12.57;92.72
72118;BME280;59992;47.490;8.736;2022-10-16T03:04:42;96643.54;;;12.54;93.30
72118;BME280;59992;47.490;8.736;2022-10-16T03:07:33;96640.58;;;12.53;93.05
72118;BME280;59992;47.490;8.736;2022-10-16T03:10:23;96632.96;;;12.53;93.43
72118;BME280;59992;47.490;8.736;2022-10-16T03:13:13;96631.45;;;12.54;92.64
72118;BME280;59992;47.490;8.736;2022-10-16T03:16:04;96629.61;;;12.51;92.93
72118;BME280;59992;47.490;8.736;2022-10-16T03:18:54;96624.74;;;12.49;93.50
72118;BME280;59992;47.490;8.736;2022-10-16T03:21:44;96632.40;;;12.47;93.92
72118;BME280;59992;47.490;8.736;2022-10-16T03:24:34;96627.66;;;12.45;93.01
72118;BME280;59992;47.490;8.736;2022-10-16T03:27:25;96631.38;;;12.42;93.34
72118;BME280;59992;47.490;8.736;2022-10-16T03:30:15;96639.64;;;12.41;92.98
72118;BME280;59992;47.490;8.736;2022-10-16T03:33:05;96643.74;;;12.41;93.20
72118;BME280;59992;47.490;8.736;2022-10-16T03:35:56;96643.14;;;12.40;92.51
72118;BME280;59992;47.490;8.736;2022-10-16T03:38:46;96645.45;;;12.35;92.78
72118;BME280;59992;47.490;8.736;2022-10-16T03:41:36;96645.16;;;12.35;92.45
72118;BME280;59992;47.490;8.736;2022-10-16T03:44:27;96651.36;;;12.33;92.32
72118;BME280;59992;47.490;8.736;2022-10-16T03:47:17;96650.06;;;12.23;92.38
72118;BME280;59992;47.490;8.736;2022-10-16T03:50:10;96662.96;;;12.23;92.37
72118;BME280;59992;47.490;8.736;2022-10-16T03:53:00;96671.08;;;12.21;91.85
72118;BME280;59992;47.490;8.736;2022-10-16T03:55:51;96669.71;;;12.12;92.15
72118;BME280;59992;47.490;8.736;2022-10-16T03:58:41;96668.66;;;12.04;91.91
72118;BME280;59992;47.490;8.736;2022-10-16T04:01:31;96668.98;;;11.99;92.69
72118;BME280;59992;47.490;8.736;2022-10-16T04:04:21;96661.39;;;11.96;92.19
72118;BME280;59992;47.490;8.736;2022-10-16T04:07:11;96659.39;;;11.94;92.22
72118;BME280;59992;47.490;8.736;2022-10-16T04:10:02;96659.45;;;11.92;92.96
72118;BME280;59992;47.490;8.736;2022-10-16T04:12:53;96656.05;;;11.86;93.84
72118;BME280;59992;47.490;8.736;2022-10-16T04:15:45;96652.85;;;11.86;94.28
72118;BME280;59992;47.490;8.736;2022-10-16T04:18:35;96661.14;;;11.87;93.19
72118;BME280;59992;47.490;8.736;2022-10-16T04:21:26;96664.88;;;11.90;94.52
72118;BME280;59992;47.490;8.736;2022-10-16T04:24:16;96664.36;;;11.92;93.74
72118;BME280;59992;47.490;8.736;2022-10-16T04:27:06;96670.77;;;11.93;93.65
72118;BME280;59992;47.490;8.736;2022-10-16T04:29:56;96669.56;;;11.95;94.50
72118;BME280;59992;47.490;8.736;2022-10-16T04:32:50;96667.61;;;11.95;94.03
72118;BME280;59992;47.490;8.736;2022-10-16T04:35:40;96659.77;;;11.86;94.11
72118;BME280;59992;47.490;8.736;2022-10-16T04:38:30;96668.03;;;11.93;94.81
72118;BME280;59992;47.490;8.736;2022-10-16T04:41:21;96678.77;;;11.97;95.20
72118;BME280;59992;47.490;8.736;2022-10-16T04:44:11;96682.05;;;12.00;94.77
72118;BME280;59992;47.490;8.736;2022-10-16T04:47:01;96678.81;;;12.02;94.39
72118;BME280;59992;47.490;8.736;2022-10-16T04:49:51;96685.75;;;12.05;94.96
72118;BME280;59992;47.490;8.736;2022-10-16T04:52:42;96687.77;;;12.11;94.72
72118;BME280;59992;47.490;8.736;2022-10-16T04:55:32;96694.02;;;12.14;94.49
72118;BME280;59992;47.490;8.736;2022-10-16T04:58:22;96695.27;;;12.14;94.80
72118;BME280;59992;47.490;8.736;2022-10-16T05:01:13;96694.13;;;12.16;94.60
72118;BME280;59992;47.490;8.736;2022-10-16T05:04:03;96698.70;;;12.18;94.11
72118;BME280;59992;47.490;8.736;2022-10-16T05:06:53;96697.39;;;12.17;94.23
72118;BME280;59992;47.490;8.736;2022-10-16T05:09:43;96697.30;;;12.16;93.65
72118;BME280;59992;47.490;8.736;2022-10-16T05:12:34;96699.18;;;12.13;93.21
72118;BME280;59992;47.490;8.736;2022-10-16T05:15:24;96698.92;;;12.10;93.38
72118;BME280;59992;47.490;8.736;2022-10-16T05:18:15;96702.70;;;12.07;93.15
72118;BME280;59992;47.490;8.736;2022-10-16T05:21:05;96709.77;;;12.01;92.92
72118;BME280;59992;47.490;8.736;2022-10-16T05:23:56;96705.73;;;11.91;92.88
72118;BME280;59992;47.490;8.736;2022-10-16T05:26:46;96702.23;;;11.83;93.69
72118;BME280;59992;47.490;8.736;2022-10-16T05:29:37;96701.88;;;11.78;94.23
72118;BME280;59992;47.490;8.736;2022-10-16T05:32:27;96697.98;;;11.76;94.14
72118;BME280;59992;47.490;8.736;2022-10-16T05:35:18;96695.95;;;11.68;94.00
72118;BME280;59992;47.490;8.736;2022-10-16T05:38:08;96689.48;;;11.63;94.59
72118;BME280;59992;47.490;8.736;2022-10-16T05:40:58;96693.20;;;11.63;94.03
72118;BME280;59992;47.490;8.736;2022-10-16T05:43:49;96695.48;;;11.64;94.66
72118;BME280;59992;47.490;8.736;2022-10-16T05:46:39;96699.15;;;11.65;95.10
72118;BME280;59992;47.490;8.736;2022-10-16T05:49:29;96702.14;;;11.66;95.44
72118;BME280;59992;47.490;8.736;2022-10-16T05:52:19;96699.51;;;11.68;95.07
72118;BME280;59992;47.490;8.736;2022-10-16T05:55:10;96702.80;;;11.72;94.83
72118;BME280;59992;47.490;8.736;2022-10-16T05:58:00;96712.52;;;11.77;95.51
72118;BME280;59992;47.490;8.736;2022-10-16T06:00:56;96715.52;;;11.85;94.97
72118;BME280;59992;47.490;8.736;2022-10-16T06:03:46;96714.21;;;11.88;94.39
72118;BME280;59992;47.490;8.736;2022-10-16T06:06:37;96718.73;;;11.93;94.93
72118;BME280;59992;47.490;8.736;2022-10-16T06:09:27;96717.31;;;11.96;95.24
72118;BME280;59992;47.490;8.736;2022-10-16T06:12:17;96718.73;;;12.02;95.23
72118;BME280;59992;47.490;8.736;2022-10-16T06:15:09;96717.15;;;12.09;94.28
72118;BME280;59992;47.490;8.736;2022-10-16T06:17:59;96720.38;;;12.14;94.71
72118;BME280;59992;47.490;8.736;2022-10-16T06:20:49;96719.81;;;12.18;94.82
72118;BME280;59992;47.490;8.736;2022-10-16T06:23:39;96723.95;;;12.24;93.93
72118;BME280;59992;47.490;8.736;2022-10-16T06:26:30;96725.45;;;12.30;93.68
72118;BME280;59992;47.490;8.736;2022-10-16T06:29:21;96728.30;;;12.33;93.48
72118;BME280;59992;47.490;8.736;2022-10-16T06:32:11;96730.66;;;12.34;93.30
72118;BME280;59992;47.490;8.736;2022-10-16T06:35:02;96735.34;;;12.39;94.24
72118;BME280;59992;47.490;8.736;2022-10-16T06:37:53;96747.16;;;12.45;93.78
72118;BME280;59992;47.490;8.736;2022-10-16T06:40:44;96746.93;;;12.53;93.41
72118;BME280;59992;47.490;8.736;2022-10-16T06:43:35;96753.35;;;12.58;93.77
72118;BME280;59992;47.490;8.736;2022-10-16T06:46:26;96756.67;;;12.67;93.33
72118;BME280;59992;47.490;8.736;2022-10-16T06:49:17;96763.14;;;12.77;93.38
72118;BME280;59992;47.490;8.736;2022-10-16T06:52:11;96767.79;;;12.87;93.23
72118;BME280;59992;47.490;8.736;2022-10-16T06:55:01;96766.05;;;13.00;93.07
72118;BME280;59992;47.490;8.736;2022-10-16T06:57:51;96769.57;;;13.10;92.41
72118;BME280;59992;47.490;8.736;2022-10-16T07:00:42;96782.23;;;13.17;92.54
72118;BME280;59992;47.490;8.736;2022-10-16T07:03:32;96785.85;;;13.24;92.02
72118;BME280;59992;47.490;8.736;2022-10-16T07:06:24;96799.98;;;13.30;92.18
72118;BME280;59992;47.490;8.736;2022-10-16T07:09:14;96801.70;;;13.38;91.86
72118;BME280;59992;47.490;8.736;2022-10-16T07:12:05;96811.77;;;13.44;91.45
72118;BME280;59992;47.490;8.736;2022-10-16T07:14:56;96812.39;;;13.46;90.95
72118;BME280;59992;47.490;8.736;2022-10-16T07:17:46;96812.90;;;13.43;91.12
72118;BME280;59992;47.490;8.736;2022-10-16T07:20:36;96813.08;;;13.48;90.83
72118;BME280;59992;47.490;8.736;2022-10-16T07:23:27;96815.30;;;13.50;91.02
72118;BME280;59992;47.490;8.736;2022-10-16T07:26:17;96816.04;;;13.47;90.65
72118;BME280;59992;47.490;8.736;2022-10-16T07:29:09;96815.26;;;13.43;90.49
72118;BME280;59992;47.490;8.736;2022-10-16T07:32:02;96816.30;;;13.38;90.50
72118;BME280;59992;47.490;8.736;2022-10-16T07:34:53;96825.03;;;13.36;90.69
72118;BME280;59992;47.490;8.736;2022-10-16T07:37:46;96831.85;;;13.32;90.57
72118;BME280;59992;47.490;8.736;2022-10-16T07:40:36;96833.42;;;13.27;90.55
72118;BME280;59992;47.490;8.736;2022-10-16T07:43:27;96835.54;;;13.52;91.14
72118;BME280;59992;47.490;8.736;2022-10-16T07:46:18;96843.45;;;13.95;90.30
72118;BME280;59992;47.490;8.736;2022-10-16T07:49:09;96850.88;;;14.39;88.70
72118;BME280;59992;47.490;8.736;2022-10-16T07:52:00;96849.42;;;14.80;87.11
72118;BME280;59992;47.490;8.736;2022-10-16T07:54:50;96853.79;;;15.19;85.02
72118;BME280;59992;47.490;8.736;2022-10-16T07:57:40;96853.16;;;15.58;83.63
72118;BME280;59992;47.490;8.736;2022-10-16T08:00:33;96851.36;;;15.97;82.63
72118;BME280;59992;47.490;8.736;2022-10-16T08:03:24;96855.58;;;16.32;80.04
72118;BME280;59992;47.490;8.736;2022-10-16T08:06:15;96856.91;;;16.59;78.88
72118;BME280;59992;47.490;8.736;2022-10-16T08:09:05;96853.29;;;16.87;77.48
72118;BME280;59992;47.490;8.736;2022-10-16T08:11:55;96853.61;;;17.25;77.94
72118;BME280;59992;47.490;8.736;2022-10-16T08:14:48;96847.77;;;17.45;75.14
72118;BME280;59992;47.490;8.736;2022-10-16T08:17:41;96845.97;;;17.66;74.88
72118;BME280;59992;47.490;8.736;2022-10-16T08:20:32;96848.91;;;17.85;73.34
72118;BME280;59992;47.490;8.736;2022-10-16T08:23:23;96846.92;;;18.12;72.42
72118;BME280;59992;47.490;8.736;2022-10-16T08:26:14;96851.48;;;18.39;71.56
72118;BME280;59992;47.490;8.736;2022-10-16T08:29:05;96851.59;;;18.50;70.92
72118;BME280;59992;47.490;8.736;2022-10-16T08:31:55;96850.64;;;18.40;72.44
72118;BME280;59992;47.490;8.736;2022-10-16T08:34:45;96856.88;;;18.37;72.78
72118;BME280;59992;47.490;8.736;2022-10-16T08:37:35;96864.86;;;18.37;72.34
72118;BME280;59992;47.490;8.736;2022-10-16T08:40:28;96869.35;;;18.34;72.44
72118;BME280;59992;47.490;8.736;2022-10-16T08:43:31;96873.16;;;18.35;73.18
72118;BME280;59992;47.490;8.736;2022-10-16T08:46:37;96874.43;;;18.20;73.08
72118;BME280;59992;47.490;8.736;2022-10-16T08:49:30;96885.03;;;18.11;74.06
72118;BME280;59992;47.490;8.736;2022-10-16T08:52:32;96891.56;;;18.02;75.15
72118;BME280;59992;47.490;8.736;2022-10-16T08:55:34;96891.86;;;17.97;75.34
72118;BME280;59992;47.490;8.736;2022-10-16T08:58:30;96890.15;;;17.98;75.58
72118;BME280;59992;47.490;8.736;2022-10-16T09:01:23;96891.55;;;18.03;74.29
72118;BME280;59992;47.490;8.736;2022-10-16T09:04:37;96891.61;;;18.06;74.46
72118;BME280;59992;47.490;8.736;2022-10-16T09:07:39;96891.23;;;18.12;75.74
72118;BME280;59992;47.490;8.736;2022-10-16T09:10:47;96893.33;;;18.23;74.54
72118;BME280;59992;47.490;8.736;2022-10-16T09:13:50;96889.89;;;18.28;74.26
72118;BME280;59992;47.490;8.736;2022-10-16T09:16:46;96891.24;;;18.31;74.46
72118;BME280;59992;47.490;8.736;2022-10-16T09:19:53;96892.80;;;18.42;76.03
72118;BME280;59992;47.490;8.736;2022-10-16T09:22:50;96894.42;;;18.54;76.51
72118;BME280;59992;47.490;8.736;2022-10-16T09:25:47;96895.88;;;18.67;76.29
72118;BME280;59992;47.490;8.736;2022-10-16T09:28:38;96904.14;;;18.79;76.11
72118;BME280;59992;47.490;8.736;2022-10-16T09:31:29;96909.80;;;18.85;73.87
72118;BME280;59992;47.490;8.736;2022-10-16T09:34:32;96911.98;;;18.89;73.25
72118;BME280;59992;47.490;8.736;2022-10-16T09:37:25;96911.89;;;18.95;70.52
72118;BME280;59992;47.490;8.736;2022-10-16T09:40:26;96914.36;;;19.06;73.10
72118;BME280;59992;47.490;8.736;2022-10-16T09:43:22;96917.50;;;19.16;71.94
72118;BME280;59992;47.490;8.736;2022-10-16T09:46:24;96914.54;;;19.29;72.13
72118;BME280;59992;47.490;8.736;2022-10-16T09:49:23;96910.02;;;19.40;69.39
72118;BME280;59992;47.490;8.736;2022-10-16T09:52:18;96908.38;;;19.46;69.54
72118;BME280;59992;47.490;8.736;2022-10-16T09:55:16;96907.14;;;19.56;71.29
72118;BME280;59992;47.490;8.736;2022-10-16T09:58:14;96905.58;;;19.66;70.01
72118;BME280;59992;47.490;8.736;2022-10-16T10:01:04;96907.77;;;19.73;70.14
72118;BME280;59992;47.490;8.736;2022-10-16T10:03:57;96904.35;;;19.74;71.76
72118;BME280;59992;47.490;8.736;2022-10-16T10:06:50;96905.30;;;19.77;71.77
72118;BME280;59992;47.490;8.736;2022-10-16T10:09:45;96905.80;;;19.76;72.38
72118;BME280;59992;47.490;8.736;2022-10-16T10:12:36;96903.34;;;19.75;72.58
72118;BME280;59992;47.490;8.736;2022-10-16T10:15:27;96903.65;;;19.80;72.69
72118;BME280;59992;47.490;8.736;2022-10-16T10:18:20;96903.09;;;19.89;73.23
72118;BME280;59992;47.490;8.736;2022-10-16T10:21:16;96904.76;;;19.99;73.23
72118;BME280;59992;47.490;8.736;2022-10-16T10:24:11;96899.09;;;20.06;72.85
72118;BME280;59992;47.490;8.736;2022-10-16T10:27:07;96896.08;;;20.11;71.89
72118;BME280;59992;47.490;8.736;2022-10-16T10:30:04;96892.50;;;20.14;72.32
72118;BME280;59992;47.490;8.736;2022-10-16T10:33:21;96889.23;;;20.14;71.87
72118;BME280;59992;47.490;8.736;2022-10-16T10:36:25;96880.13;;;20.08;69.47
72118;BME280;59992;47.490;8.736;2022-10-16T10:39:22;96890.33;;;20.20;70.03
72118;BME280;59992;47.490;8.736;2022-10-16T10:42:21;96884.92;;;20.24;69.14
72118;BME280;59992;47.490;8.736;2022-10-16T10:45:20;96882.68;;;20.32;71.25
72118;BME280;59992;47.490;8.736;2022-10-16T10:48:21;96881.20;;;20.41;71.58
72118;BME280;59992;47.490;8.736;2022-10-16T10:51:17;96881.38;;;20.47;71.96
72118;BME280;59992;47.490;8.736;2022-10-16T10:54:16;96882.41;;;20.56;71.85
72118;BME280;59992;47.490;8.736;2022-10-16T10:57:13;96880.80;;;20.63;71.64
72118;BME280;59992;47.490;8.736;2022-10-16T11:00:16;96876.52;;;20.69;71.15
72118;BME280;59992;47.490;8.736;2022-10-16T11:03:20;96878.39;;;20.71;68.96
72118;BME280;59992;47.490;8.736;2022-10-16T11:06:18;96873.26;;;20.74;66.97
72118;BME280;59992;47.490;8.736;2022-10-16T11:09:15;96874.30;;;20.75;66.70
72118;BME280;59992;47.490;8.736;2022-10-16T11:12:11;96877.41;;;20.81;66.27
72118;BME280;59992;47.490;8.736;2022-10-16T11:15:07;96875.10;;;20.85;65.46
72118;BME280;59992;47.490;8.736;2022-10-16T11:18:06;96869.25;;;20.91;65.84
72118;BME280;59992;47.490;8.736;2022-10-16T11:21:02;96868.30;;;20.99;65.86
72118;BME280;59992;47.490;8.736;2022-10-16T11:23:57;96864.27;;;21.05;66.25
72118;BME280;59992;47.490;8.736;2022-10-16T11:26:50;96854.13;;;21.10;64.74
72118;BME280;59992;47.490;8.736;2022-10-16T11:29:49;96849.92;;;21.15;64.30
72118;BME280;59992;47.490;8.736;2022-10-16T11:32:54;96844.41;;;21.21;65.64
72118;BME280;59992;47.490;8.736;2022-10-16T11:35:51;96843.10;;;21.27;68.51
72118;BME280;59992;47.490;8.736;2022-10-16T11:38:48;96841.78;;;21.23;69.82
72118;BME280;59992;47.490;8.736;2022-10-16T11:41:47;96843.06;;;21.31;70.02
72118;BME280;59992;47.490;8.736;2022-10-16T11:44:51;96845.23;;;21.37;66.96
72118;BME280;59992;47.490;8.736;2022-10-16T11:47:45;96837.61;;;21.39;67.73
72118;BME280;59992;47.490;8.736;2022-10-16T11:50:42;96842.75;;;21.50;68.02
72118;BME280;59992;47.490;8.736;2022-10-16T11:53:49;96841.90;;;21.55;69.71
72118;BME280;59992;47.490;8.736;2022-10-16T11:56:44;96836.80;;;21.65;69.20
72118;BME280;59992;47.490;8.736;2022-10-16T11:59:41;96837.17;;;21.77;68.70
72118;BME280;59992;47.490;8.736;2022-10-16T12:02:48;96836.16;;;21.84;65.45
72118;BME280;59992;47.490;8.736;2022-10-16T12:05:55;96836.36;;;21.91;67.91
72118;BME280;59992;47.490;8.736;2022-10-16T12:08:48;96835.20;;;21.94;64.25
72118;BME280;59992;47.490;8.736;2022-10-16T12:11:39;96835.54;;;21.98;66.36
72118;BME280;59992;47.490;8.736;2022-10-16T12:14:39;96834.81;;;21.97;66.69
72118;BME280;59992;47.490;8.736;2022-10-16T12:17:36;96828.25;;;22.00;67.07
72118;BME280;59992;47.490;8.736;2022-10-16T12:20:30;96827.66;;;22.10;66.45
72118;BME280;59992;47.490;8.736;2022-10-16T12:23:22;96825.38;;;22.19;64.55
72118;BME280;59992;47.490;8.736;2022-10-16T12:26:13;96822.73;;;22.30;63.64
72118;BME280;59992;47.490;8.736;2022-10-16T12:29:17;96821.71;;;22.36;62.42
72118;BME280;59992;47.490;8.736;2022-10-16T12:32:31;96816.91;;;22.42;62.31
72118;BME280;59992;47.490;8.736;2022-10-16T12:35:25;96809.98;;;22.47;61.29
72118;BME280;59992;47.490;8.736;2022-10-16T12:38:21;96808.94;;;22.53;61.20
72118;BME280;59992;47.490;8.736;2022-10-16T12:41:25;96811.23;;;22.60;62.46
72118;BME280;59992;47.490;8.736;2022-10-16T12:44:24;96812.83;;;22.66;63.07
72118;BME280;59992;47.490;8.736;2022-10-16T12:47:23;96809.77;;;22.70;63.00
72118;BME280;59992;47.490;8.736;2022-10-16T12:50:34;96803.73;;;22.68;63.46
72118;BME280;59992;47.490;8.736;2022-10-16T12:53:26;96804.02;;;22.68;62.08
72118;BME280;59992;47.490;8.736;2022-10-16T12:56:21;96801.99;;;22.69;59.55
72118;BME280;59992;47.490;8.736;2022-10-16T12:59:23;96803.84;;;22.71;60.24
72118;BME280;59992;47.490;8.736;2022-10-16T13:02:43;96804.01;;;22.74;59.91
72118;BME280;59992;47.490;8.736;2022-10-16T13:05:46;96805.79;;;22.61;64.41
72118;BME280;59992;47.490;8.736;2022-10-16T13:08:57;96800.63;;;22.55;65.09
72118;BME280;59992;47.490;8.736;2022-10-16T13:12:00;96795.35;;;22.51;65.79
72118;BME280;59992;47.490;8.736;2022-10-16T13:15:09;96798.82;;;22.56;65.53
72118;BME280;59992;47.490;8.736;2022-10-16T13:18:13;96801.94;;;22.53;65.92
72118;BME280;59992;47.490;8.736;2022-10-16T13:21:19;96801.55;;;22.45;65.27
72118;BME280;59992;47.490;8.736;2022-10-16T13:24:33;96804.81;;;22.47;65.27
72118;BME280;59992;47.490;8.736;2022-10-16T13:27:37;96806.64;;;22.50;64.85
72118;BME280;59992;47.490;8.736;2022-10-16T13:30:31;96812.65;;;22.51;66.45
72118;BME280;59992;47.490;8.736;2022-10-16T13:33:32;96813.59;;;22.51;66.87
72118;BME280;59992;47.490;8.736;2022-10-16T13:36:25;96811.70;;;22.51;67.05
72118;BME280;59992;47.490;8.736;2022-10-16T13:39:21;96810.65;;;22.51;66.23
72118;BME280;59992;47.490;8.736;2022-10-16T13:42:13;96811.20;;;22.53;64.23
72118;BME280;59992;47.490;8.736;2022-10-16T13:48:09;96812.52;;;22.58;63.20
72118;BME280;59992;47.490;8.736;2022-10-16T13:51:11;96808.56;;;22.59;62.29
72118;BME280;59992;47.490;8.736;2022-10-16T13:54:02;96814.45;;;22.63;64.15
72118;BME280;59992;47.490;8.736;2022-10-16T13:56:52;96812.17;;;22.62;62.74
72118;BME280;59992;47.490;8.736;2022-10-16T13:59:42;96815.08;;;22.61;61.71
72118;BME280;59992;47.490;8.736;2022-10-16T14:02:34;96814.48;;;22.65;63.04
72118;BME280;59992;47.490;8.736;2022-10-16T14:05:26;96816.79;;;22.63;64.10
72118;BME280;59992;47.490;8.736;2022-10-16T14:08:17;96818.33;;;22.58;64.55
72118;BME280;59992;47.490;8.736;2022-10-16T14:11:07;96820.30;;;22.40;65.34
72118;BME280;59992;47.490;8.736;2022-10-16T14:13:58;96820.00;;;22.19;64.37
72118;BME280;59992;47.490;8.736;2022-10-16T14:16:49;96823.84;;;22.21;62.22
72118;BME280;59992;47.490;8.736;2022-10-16T14:19:40;96821.98;;;22.24;61.87
72118;BME280;59992;47.490;8.736;2022-10-16T14:22:33;96815.27;;;22.27;60.62
72118;BME280;59992;47.490;8.736;2022-10-16T14:25:26;96816.98;;;22.32;62.11
72118;BME280;59992;47.490;8.736;2022-10-16T14:28:20;96814.20;;;22.37;62.21
72118;BME280;59992;47.490;8.736;2022-10-16T14:31:31;96816.37;;;22.37;63.21
72118;BME280;59992;47.490;8.736;2022-10-16T14:34:27;96820.10;;;22.07;65.04
72118;BME280;59992;47.490;8.736;2022-10-16T14:37:26;96822.71;;;21.87;66.17
72118;BME280;59992;47.490;8.736;2022-10-16T14:40:16;96820.80;;;21.57;67.42
72118;BME280;59992;47.490;8.736;2022-10-16T14:43:14;96820.35;;;21.51;67.52
72118;BME280;59992;47.490;8.736;2022-10-16T14:46:11;96821.64;;;21.37;68.39
72118;BME280;59992;47.490;8.736;2022-10-16T14:49:15;96821.75;;;21.26;68.50
72118;BME280;59992;47.490;8.736;2022-10-16T14:52:10;96815.13;;;21.17;68.89
72118;BME280;59992;47.490;8.736;2022-10-16T14:55:01;96824.64;;;21.10;69.45
72118;BME280;59992;47.490;8.736;2022-10-16T14:57:51;96826.80;;;21.03;69.40
72118;BME280;59992;47.490;8.736;2022-10-16T15:00:41;96826.30;;;21.01;69.55
72118;BME280;59992;47.490;8.736;2022-10-16T15:03:31;96833.46;;;20.94;69.49
72118;BME280;59992;47.490;8.736;2022-10-16T15:06:22;96832.72;;;20.83;69.63
72118;BME280;59992;47.490;8.736;2022-10-16T15:09:12;96839.31;;;20.74;69.80
72118;BME280;59992;47.490;8.736;2022-10-16T15:12:04;96836.94;;;20.66;70.22
72118;BME280;59992;47.490;8.736;2022-10-16T15:14:56;96839.50;;;20.59;70.18
72118;BME280;59992;47.490;8.736;2022-10-16T15:17:46;96845.65;;;20.51;70.72
72118;BME280;59992;47.490;8.736;2022-10-16T15:20:38;96846.40;;;20.42;71.24
72118;BME280;59992;47.490;8.736;2022-10-16T15:23:29;96853.63;;;20.39;71.33
72118;BME280;59992;47.490;8.736;2022-10-16T15:26:20;96846.33;;;20.31;71.75